sensor_id;sensor_type;location;lat;lon;timestamp;P1;durP1;ratioP1;P2;durP2;ratioP2
23496;SDS011;11925;48.122;11.560;2024-02-16T00:00:24;9.27;;;5.10;;
23496;SDS011;11925;48.122;11.560;2024-02-16T00:02:53;6.30;;;4.57;;
23496;SDS011;11925;48.122;11.560;2024-02-16T00:05:22;8.75;;;5.40;;
23496;SDS011;11925;48.122;11.560;2024-02-16T00:07:50;6.32;;;4.88;;
23496;SDS011;11925;48.122;11.560;2024-02-16T00:10:21;7.50;;;4.90;;
23496;SDS011;11925;48.122;11.560;2024-02-16T00:12:49;7.90;;;4.50;;
23496;SDS011;11925;48.122;11.560;2024-02-16T00:15:18;7.38;;;4.90;;
23496;SDS011;11925;48.122;11.560;2024-02-16T00:17:47;8.15;;;5.32;;
23496;SDS011;11925;48.122;11.560;2024-02-16T00:20:16;6.45;;;4.88;;
23496;SDS011;11925;48.122;11.560;2024-02-16T00:22:48;7.30;;;5.30;;
23496;SDS011;11925;48.122;11.560;2024-02-16T00:25:16;7.85;;;4.72;;
23496;SDS011;11925;48.122;11.560;2024-02-16T00:27:46;7.05;;;4.40;;
23496;SDS011;11925;48.122;11.560;2024-02-16T00:30:15;8.63;;;4.80;;
23496;SDS011;11925;48.122;11.560;2024-02-16T00:32:45;8.18;;;4.82;;
23496;SDS011;11925;48.122;11.560;2024-02-16T00:35:14;7.13;;;4.97;;
23496;SDS011;11925;48.122;11.560;2024-02-16T00:37:44;7.65;;;4.85;;
23496;SDS011;11925;48.122;11.560;2024-02-16T00:40:13;8.07;;;5.03;;
23496;SDS011;11925;48.122;11.560;2024-02-16T00:42:42;7.60;;;5.10;;
23496;SDS011;11925;48.122;11.560;2024-02-16T00:45:12;7.70;;;4.72;;
23496;SDS011;11925;48.122;11.560;2024-02-16T00:47:41;7.57;;;5.35;;
23496;SDS011;11925;48.122;11.560;2024-02-16T00:50:11;9.80;;;5.33;;
23496;SDS011;11925;48.122;11.560;2024-02-16T00:52:40;8.73;;;4.90;;
23496;SDS011;11925;48.122;11.560;2024-02-16T00:55:11;7.07;;;4.78;;
23496;SDS011;11925;48.122;11.560;2024-02-16T00:57:40;7.70;;;4.80;;
23496;SDS011;11925;48.122;11.560;2024-02-16T01:00:09;8.85;;;4.95;;
23496;SDS011;11925;48.122;11.560;2024-02-16T01:02:40;6.55;;;4.40;;
23496;SDS011;11925;48.122;11.560;2024-02-16T01:05:08;7.13;;;4.38;;
23496;SDS011;11925;48.122;11.560;2024-02-16T01:07:37;7.65;;;4.47;;
23496;SDS011;11925;48.122;11.560;2024-02-16T01:10:08;5.93;;;4.38;;
23496;SDS011;11925;48.122;11.560;2024-02-16T01:12:36;5.50;;;3.80;;
23496;SDS011;11925;48.122;11.560;2024-02-16T01:15:06;8.23;;;4.40;;
23496;SDS011;11925;48.122;11.560;2024-02-16T01:17:35;7.65;;;4.10;;
23496;SDS011;11925;48.122;11.560;2024-02-16T01:20:07;5.80;;;3.65;;
23496;SDS011;11925;48.122;11.560;2024-02-16T01:22:40;6.60;;;4.30;;
23496;SDS011;11925;48.122;11.560;2024-02-16T01:25:09;6.22;;;3.80;;
23496;SDS011;11925;48.122;11.560;2024-02-16T01:27:38;5.95;;;4.15;;
23496;SDS011;11925;48.122;11.560;2024-02-16T01:30:08;4.68;;;3.33;;
23496;SDS011;11925;48.122;11.560;2024-02-16T01:32:37;5.55;;;3.45;;
23496;SDS011;11925;48.122;11.560;2024-02-16T01:35:08;7.00;;;3.88;;
23496;SDS011;11925;48.122;11.560;2024-02-16T01:37:37;5.93;;;3.65;;
23496;SDS011;11925;48.122;11.560;2024-02-16T01:40:07;8.82;;;3.97;;
23496;SDS011;11925;48.122;11.560;2024-02-16T01:42:40;5.40;;;3.25;;
23496;SDS011;11925;48.122;11.560;2024-02-16T01:45:09;6.40;;;3.20;;
23496;SDS011;11925;48.122;11.560;2024-02-16T01:47:39;5.35;;;3.33;;
23496;SDS011;11925;48.122;11.560;2024-02-16T01:50:11;4.70;;;3.50;;
23496;SDS011;11925;48.122;11.560;2024-02-16T01:52:39;7.60;;;3.33;;
23496;SDS011;11925;48.122;11.560;2024-02-16T01:55:08;7.63;;;3.08;;
23496;SDS011;11925;48.122;11.560;2024-02-16T01:57:37;5.30;;;2.90;;
23496;SDS011;11925;48.122;11.560;2024-02-16T02:00:07;4.10;;;2.72;;
23496;SDS011;11925;48.122;11.560;2024-02-16T02:02:36;4.68;;;2.85;;
23496;SDS011;11925;48.122;11.560;2024-02-16T02:05:05;6.13;;;3.13;;
23496;SDS011;11925;48.122;11.560;2024-02-16T02:07:35;5.80;;;3.60;;
23496;SDS011;11925;48.122;11.560;2024-02-16T02:10:04;5.57;;;3.42;;
23496;SDS011;11925;48.122;11.560;2024-02-16T02:12:33;5.57;;;3.20;;
23496;SDS011;11925;48.122;11.560;2024-02-16T02:15:02;5.65;;;3.33;;
23496;SDS011;11925;48.122;11.560;2024-02-16T02:17:31;4.95;;;2.53;;
23496;SDS011;11925;48.122;11.560;2024-02-16T02:20:01;4.72;;;3.00;;
23496;SDS011;11925;48.122;11.560;2024-02-16T02:22:32;4.18;;;2.70;;
23496;SDS011;11925;48.122;11.560;2024-02-16T02:25:01;4.38;;;3.22;;
23496;SDS011;11925;48.122;11.560;2024-02-16T02:27:30;4.47;;;3.10;;
23496;SDS011;11925;48.122;11.560;2024-02-16T02:29:59;5.25;;;3.00;;
23496;SDS011;11925;48.122;11.560;2024-02-16T02:32:28;6.10;;;3.03;;
23496;SDS011;11925;48.122;11.560;2024-02-16T02:34:57;4.80;;;3.00;;
23496;SDS011;11925;48.122;11.560;2024-02-16T02:37:26;4.63;;;3.13;;
23496;SDS011;11925;48.122;11.560;2024-02-16T02:39:56;5.85;;;3.10;;
23496;SDS011;11925;48.122;11.560;2024-02-16T02:42:24;4.18;;;2.60;;
23496;SDS011;11925;48.122;11.560;2024-02-16T02:44:54;5.03;;;3.72;;
23496;SDS011;11925;48.122;11.560;2024-02-16T02:47:23;6.50;;;3.03;;
23496;SDS011;11925;48.122;11.560;2024-02-16T02:49:52;5.32;;;2.70;;
23496;SDS011;11925;48.122;11.560;2024-02-16T02:52:21;6.03;;;3.05;;
23496;SDS011;11925;48.122;11.560;2024-02-16T02:54:50;6.25;;;3.53;;
23496;SDS011;11925;48.122;11.560;2024-02-16T02:57:20;4.60;;;2.78;;
23496;SDS011;11925;48.122;11.560;2024-02-16T02:59:48;5.03;;;2.92;;
23496;SDS011;11925;48.122;11.560;2024-02-16T03:02:17;4.65;;;3.22;;
23496;SDS011;11925;48.122;11.560;2024-02-16T03:04:46;6.13;;;3.08;;
23496;SDS011;11925;48.122;11.560;2024-02-16T03:07:15;6.85;;;3.15;;
23496;SDS011;11925;48.122;11.560;2024-02-16T03:09:44;5.40;;;3.20;;
23496;SDS011;11925;48.122;11.560;2024-02-16T03:12:12;4.80;;;2.70;;
23496;SDS011;11925;48.122;11.560;2024-02-16T03:14:43;4.53;;;3.15;;
23496;SDS011;11925;48.122;11.560;2024-02-16T03:17:11;4.78;;;2.70;;
23496;SDS011;11925;48.122;11.560;2024-02-16T03:19:40;4.90;;;2.63;;
23496;SDS011;11925;48.122;11.560;2024-02-16T03:22:09;4.60;;;2.70;;
23496;SDS011;11925;48.122;11.560;2024-02-16T03:24:39;4.75;;;2.72;;
23496;SDS011;11925;48.122;11.560;2024-02-16T03:27:07;3.97;;;2.60;;
23496;SDS011;11925;48.122;11.560;2024-02-16T03:29:37;4.78;;;2.50;;
23496;SDS011;11925;48.122;11.560;2024-02-16T03:32:07;3.45;;;2.35;;
23496;SDS011;11925;48.122;11.560;2024-02-16T03:34:36;5.35;;;2.35;;
23496;SDS011;11925;48.122;11.560;2024-02-16T03:37:05;3.80;;;2.35;;
23496;SDS011;11925;48.122;11.560;2024-02-16T03:39:33;4.03;;;2.28;;
23496;SDS011;11925;48.122;11.560;2024-02-16T03:42:02;5.72;;;2.28;;
23496;SDS011;11925;48.122;11.560;2024-02-16T03:44:31;4.78;;;2.72;;
23496;SDS011;11925;48.122;11.560;2024-02-16T03:47:00;4.88;;;1.90;;
23496;SDS011;11925;48.122;11.560;2024-02-16T03:49:30;4.68;;;2.30;;
23496;SDS011;11925;48.122;11.560;2024-02-16T03:51:59;3.08;;;2.30;;
23496;SDS011;11925;48.122;11.560;2024-02-16T03:54:27;2.95;;;2.30;;
23496;SDS011;11925;48.122;11.560;2024-02-16T03:56:56;5.35;;;2.13;;
23496;SDS011;11925;48.122;11.560;2024-02-16T03:59:26;3.35;;;2.03;;
23496;SDS011;11925;48.122;11.560;2024-02-16T04:01:55;4.00;;;2.30;;
23496;SDS011;11925;48.122;11.560;2024-02-16T04:04:23;4.15;;;2.50;;
23496;SDS011;11925;48.122;11.560;2024-02-16T04:06:55;3.45;;;2.08;;
23496;SDS011;11925;48.122;11.560;2024-02-16T04:09:23;2.78;;;2.03;;
23496;SDS011;11925;48.122;11.560;2024-02-16T04:11:52;4.05;;;2.20;;
23496;SDS011;11925;48.122;11.560;2024-02-16T04:14:21;4.22;;;2.15;;
23496;SDS011;11925;48.122;11.560;2024-02-16T04:16:50;3.60;;;2.00;;
23496;SDS011;11925;48.122;11.560;2024-02-16T04:19:18;5.40;;;2.40;;
23496;SDS011;11925;48.122;11.560;2024-02-16T04:21:47;4.53;;;2.40;;
23496;SDS011;11925;48.122;11.560;2024-02-16T04:24:17;4.70;;;2.80;;
23496;SDS011;11925;48.122;11.560;2024-02-16T04:26:46;5.93;;;3.10;;
23496;SDS011;11925;48.122;11.560;2024-02-16T04:29:15;5.45;;;2.70;;
23496;SDS011;11925;48.122;11.560;2024-02-16T04:31:44;5.72;;;2.50;;
23496;SDS011;11925;48.122;11.560;2024-02-16T04:34:13;4.35;;;2.60;;
23496;SDS011;11925;48.122;11.560;2024-02-16T04:36:43;4.35;;;2.92;;
23496;SDS011;11925;48.122;11.560;2024-02-16T04:39:11;5.40;;;2.30;;
23496;SDS011;11925;48.122;11.560;2024-02-16T04:41:42;3.40;;;2.40;;
23496;SDS011;11925;48.122;11.560;2024-02-16T04:44:11;4.60;;;2.40;;
23496;SDS011;11925;48.122;11.560;2024-02-16T04:46:40;4.15;;;2.50;;
23496;SDS011;11925;48.122;11.560;2024-02-16T04:49:09;3.03;;;2.38;;
23496;SDS011;11925;48.122;11.560;2024-02-16T04:51:38;3.95;;;2.53;;
23496;SDS011;11925;48.122;11.560;2024-02-16T04:54:07;5.47;;;2.70;;
23496;SDS011;11925;48.122;11.560;2024-02-16T04:56:36;3.45;;;2.30;;
23496;SDS011;11925;48.122;11.560;2024-02-16T04:59:07;3.70;;;1.95;;
23496;SDS011;11925;48.122;11.560;2024-02-16T05:01:36;3.45;;;2.03;;
23496;SDS011;11925;48.122;11.560;2024-02-16T05:04:04;4.07;;;1.98;;
23496;SDS011;11925;48.122;11.560;2024-02-16T05:06:38;3.80;;;2.00;;
23496;SDS011;11925;48.122;11.560;2024-02-16T05:09:07;2.97;;;1.60;;
23496;SDS011;11925;48.122;11.560;2024-02-16T05:11:35;4.25;;;1.90;;
23496;SDS011;11925;48.122;11.560;2024-02-16T05:14:04;5.75;;;1.77;;
23496;SDS011;11925;48.122;11.560;2024-02-16T05:16:34;4.35;;;2.15;;
23496;SDS011;11925;48.122;11.560;2024-02-16T05:19:03;2.80;;;1.80;;
23496;SDS011;11925;48.122;11.560;2024-02-16T05:21:32;2.83;;;1.98;;
23496;SDS011;11925;48.122;11.560;2024-02-16T05:24:01;4.55;;;1.85;;
23496;SDS011;11925;48.122;11.560;2024-02-16T05:26:30;3.35;;;1.83;;
23496;SDS011;11925;48.122;11.560;2024-02-16T05:28:59;3.10;;;2.20;;
23496;SDS011;11925;48.122;11.560;2024-02-16T05:31:27;3.08;;;1.70;;
23496;SDS011;11925;48.122;11.560;2024-02-16T05:33:59;3.13;;;1.90;;
23496;SDS011;11925;48.122;11.560;2024-02-16T05:36:27;4.03;;;2.10;;
23496;SDS011;11925;48.122;11.560;2024-02-16T05:39:01;3.58;;;1.75;;
23496;SDS011;11925;48.122;11.560;2024-02-16T05:41:46;4.05;;;2.05;;
23496;SDS011;11925;48.122;11.560;2024-02-16T05:44:15;4.57;;;2.05;;
23496;SDS011;11925;48.122;11.560;2024-02-16T05:46:45;3.20;;;1.80;;
23496;SDS011;11925;48.122;11.560;2024-02-16T05:49:15;3.25;;;1.95;;
23496;SDS011;11925;48.122;11.560;2024-02-16T05:51:44;4.40;;;2.40;;
23496;SDS011;11925;48.122;11.560;2024-02-16T05:54:33;2.95;;;1.90;;
23496;SDS011;11925;48.122;11.560;2024-02-16T05:59:35;5.43;;;2.03;;
23496;SDS011;11925;48.122;11.560;2024-02-16T06:02:05;2.97;;;1.83;;
23496;SDS011;11925;48.122;11.560;2024-02-16T06:04:36;4.25;;;2.33;;
23496;SDS011;11925;48.122;11.560;2024-02-16T06:07:06;4.05;;;2.03;;
23496;SDS011;11925;48.122;11.560;2024-02-16T06:09:35;3.38;;;1.98;;
23496;SDS011;11925;48.122;11.560;2024-02-16T06:12:04;3.20;;;1.98;;
23496;SDS011;11925;48.122;11.560;2024-02-16T06:14:34;4.90;;;1.98;;
23496;SDS011;11925;48.122;11.560;2024-02-16T06:17:04;3.75;;;1.70;;
23496;SDS011;11925;48.122;11.560;2024-02-16T06:19:35;3.15;;;1.75;;
23496;SDS011;11925;48.122;11.560;2024-02-16T06:22:05;3.25;;;1.90;;
23496;SDS011;11925;48.122;11.560;2024-02-16T06:24:34;5.90;;;2.17;;
23496;SDS011;11925;48.122;11.560;2024-02-16T06:27:03;4.18;;;1.73;;
23496;SDS011;11925;48.122;11.560;2024-02-16T06:29:34;2.35;;;1.52;;
23496;SDS011;11925;48.122;11.560;2024-02-16T06:32:03;3.83;;;1.70;;
23496;SDS011;11925;48.122;11.560;2024-02-16T06:34:32;2.30;;;1.40;;
23496;SDS011;11925;48.122;11.560;2024-02-16T06:37:02;8.40;;;2.00;;
23496;SDS011;11925;48.122;11.560;2024-02-16T06:39:32;3.35;;;1.88;;
23496;SDS011;11925;48.122;11.560;2024-02-16T06:42:01;4.20;;;2.20;;
23496;SDS011;11925;48.122;11.560;2024-02-16T06:44:30;4.20;;;1.98;;
23496;SDS011;11925;48.122;11.560;2024-02-16T06:46:59;4.32;;;2.17;;
23496;SDS011;11925;48.122;11.560;2024-02-16T06:49:28;4.05;;;1.90;;
23496;SDS011;11925;48.122;11.560;2024-02-16T06:51:57;4.20;;;1.85;;
23496;SDS011;11925;48.122;11.560;2024-02-16T06:54:27;4.68;;;1.70;;
23496;SDS011;11925;48.122;11.560;2024-02-16T06:56:57;6.32;;;2.40;;
23496;SDS011;11925;48.122;11.560;2024-02-16T06:59:26;3.50;;;1.95;;
23496;SDS011;11925;48.122;11.560;2024-02-16T07:01:55;4.95;;;2.30;;
23496;SDS011;11925;48.122;11.560;2024-02-16T07:04:23;5.13;;;2.50;;
23496;SDS011;11925;48.122;11.560;2024-02-16T07:06:52;5.85;;;2.30;;
23496;SDS011;11925;48.122;11.560;2024-02-16T07:09:21;4.10;;;2.10;;
23496;SDS011;11925;48.122;11.560;2024-02-16T07:11:50;4.57;;;1.83;;
23496;SDS011;11925;48.122;11.560;2024-02-16T07:14:21;6.45;;;2.13;;
23496;SDS011;11925;48.122;11.560;2024-02-16T07:16:50;6.18;;;2.13;;
23496;SDS011;11925;48.122;11.560;2024-02-16T07:19:19;8.02;;;2.58;;
23496;SDS011;11925;48.122;11.560;2024-02-16T07:21:48;5.10;;;2.15;;
23496;SDS011;11925;48.122;11.560;2024-02-16T07:24:16;8.75;;;2.63;;
23496;SDS011;11925;48.122;11.560;2024-02-16T07:26:45;7.65;;;2.35;;
23496;SDS011;11925;48.122;11.560;2024-02-16T07:29:15;6.65;;;2.35;;
23496;SDS011;11925;48.122;11.560;2024-02-16T07:31:45;6.90;;;2.17;;
23496;SDS011;11925;48.122;11.560;2024-02-16T07:34:14;5.50;;;2.40;;
23496;SDS011;11925;48.122;11.560;2024-02-16T07:36:43;5.57;;;2.30;;
23496;SDS011;11925;48.122;11.560;2024-02-16T07:39:11;6.75;;;2.20;;
23496;SDS011;11925;48.122;11.560;2024-02-16T07:41:40;8.48;;;2.45;;
23496;SDS011;11925;48.122;11.560;2024-02-16T07:44:09;4.70;;;1.88;;
23496;SDS011;11925;48.122;11.560;2024-02-16T07:46:41;4.20;;;2.13;;
23496;SDS011;11925;48.122;11.560;2024-02-16T07:49:14;5.35;;;2.15;;
23496;SDS011;11925;48.122;11.560;2024-02-16T07:51:43;6.18;;;2.10;;
23496;SDS011;11925;48.122;11.560;2024-02-16T07:54:12;5.95;;;1.90;;
23496;SDS011;11925;48.122;11.560;2024-02-16T07:56:41;4.90;;;2.10;;
23496;SDS011;11925;48.122;11.560;2024-02-16T07:59:09;6.18;;;2.08;;
23496;SDS011;11925;48.122;11.560;2024-02-16T08:01:38;4.00;;;2.10;;
23496;SDS011;11925;48.122;11.560;2024-02-16T08:04:07;5.63;;;2.05;;
23496;SDS011;11925;48.122;11.560;2024-02-16T08:06:37;5.55;;;2.38;;
23496;SDS011;11925;48.122;11.560;2024-02-16T08:09:06;7.00;;;2.28;;
23496;SDS011;11925;48.122;11.560;2024-02-16T08:11:35;3.70;;;2.33;;
23496;SDS011;11925;48.122;11.560;2024-02-16T08:14:05;5.60;;;2.08;;
23496;SDS011;11925;48.122;11.560;2024-02-16T08:16:34;5.07;;;2.15;;
23496;SDS011;11925;48.122;11.560;2024-02-16T08:19:03;5.38;;;2.28;;
23496;SDS011;11925;48.122;11.560;2024-02-16T08:21:32;6.65;;;2.63;;
23496;SDS011;11925;48.122;11.560;2024-02-16T08:24:02;5.15;;;2.20;;
23496;SDS011;11925;48.122;11.560;2024-02-16T08:26:31;3.75;;;2.10;;
23496;SDS011;11925;48.122;11.560;2024-02-16T08:29:00;6.85;;;3.03;;
23496;SDS011;11925;48.122;11.560;2024-02-16T08:31:29;4.32;;;1.70;;
23496;SDS011;11925;48.122;11.560;2024-02-16T08:33:58;4.15;;;2.13;;
23496;SDS011;11925;48.122;11.560;2024-02-16T08:36:30;8.30;;;2.45;;
23496;SDS011;11925;48.122;11.560;2024-02-16T08:39:00;3.90;;;1.90;;
23496;SDS011;11925;48.122;11.560;2024-02-16T08:41:30;5.22;;;2.00;;
23496;SDS011;11925;48.122;11.560;2024-02-16T08:43:59;4.15;;;1.80;;
23496;SDS011;11925;48.122;11.560;2024-02-16T08:46:28;6.03;;;2.95;;
23496;SDS011;11925;48.122;11.560;2024-02-16T08:48:57;4.55;;;1.90;;
23496;SDS011;11925;48.122;11.560;2024-02-16T08:51:26;3.72;;;1.98;;
23496;SDS011;11925;48.122;11.560;2024-02-16T08:53:55;3.65;;;1.80;;
23496;SDS011;11925;48.122;11.560;2024-02-16T08:56:24;4.95;;;1.63;;
23496;SDS011;11925;48.122;11.560;2024-02-16T08:58:54;6.82;;;1.75;;
23496;SDS011;11925;48.122;11.560;2024-02-16T09:01:29;5.20;;;1.83;;
23496;SDS011;11925;48.122;11.560;2024-02-16T09:03:58;4.43;;;1.67;;
23496;SDS011;11925;48.122;11.560;2024-02-16T09:06:28;5.18;;;1.73;;
23496;SDS011;11925;48.122;11.560;2024-02-16T09:08:57;4.47;;;2.05;;
23496;SDS011;11925;48.122;11.560;2024-02-16T09:11:26;3.75;;;2.00;;
23496;SDS011;11925;48.122;11.560;2024-02-16T09:13:56;11.18;;;2.38;;
23496;SDS011;11925;48.122;11.560;2024-02-16T09:16:25;5.70;;;1.85;;
23496;SDS011;11925;48.122;11.560;2024-02-16T09:18:54;6.63;;;2.38;;
23496;SDS011;11925;48.122;11.560;2024-02-16T09:21:23;5.20;;;1.88;;
23496;SDS011;11925;48.122;11.560;2024-02-16T09:23:53;5.07;;;1.87;;
23496;SDS011;11925;48.122;11.560;2024-02-16T09:26:25;7.03;;;2.40;;
23496;SDS011;11925;48.122;11.560;2024-02-16T09:28:58;5.43;;;2.10;;
23496;SDS011;11925;48.122;11.560;2024-02-16T09:31:27;3.90;;;1.67;;
23496;SDS011;11925;48.122;11.560;2024-02-16T09:33:55;5.53;;;1.73;;
23496;SDS011;11925;48.122;11.560;2024-02-16T09:36:24;8.48;;;1.90;;
23496;SDS011;11925;48.122;11.560;2024-02-16T09:38:53;5.03;;;2.55;;
23496;SDS011;11925;48.122;11.560;2024-02-16T09:41:22;4.88;;;2.20;;
23496;SDS011;11925;48.122;11.560;2024-02-16T09:43:50;4.57;;;2.47;;
23496;SDS011;11925;48.122;11.560;2024-02-16T09:46:22;5.35;;;2.10;;
23496;SDS011;11925;48.122;11.560;2024-02-16T09:48:51;4.03;;;1.73;;
23496;SDS011;11925;48.122;11.560;2024-02-16T09:51:21;6.10;;;2.08;;
23496;SDS011;11925;48.122;11.560;2024-02-16T09:53:50;5.13;;;1.70;;
23496;SDS011;11925;48.122;11.560;2024-02-16T09:56:24;6.20;;;2.35;;
23496;SDS011;11925;48.122;11.560;2024-02-16T09:58:53;3.90;;;1.60;;
23496;SDS011;11925;48.122;11.560;2024-02-16T10:01:24;7.95;;;2.10;;
23496;SDS011;11925;48.122;11.560;2024-02-16T10:03:52;5.82;;;2.97;;
23496;SDS011;11925;48.122;11.560;2024-02-16T10:06:21;4.55;;;2.35;;
23496;SDS011;11925;48.122;11.560;2024-02-16T10:08:51;4.55;;;2.10;;
23496;SDS011;11925;48.122;11.560;2024-02-16T10:11:21;3.60;;;1.70;;
23496;SDS011;11925;48.122;11.560;2024-02-16T10:13:55;4.63;;;1.77;;
23496;SDS011;11925;48.122;11.560;2024-02-16T10:16:25;5.30;;;2.38;;
23496;SDS011;11925;48.122;11.560;2024-02-16T10:18:57;6.30;;;2.10;;
23496;SDS011;11925;48.122;11.560;2024-02-16T10:21:32;5.97;;;2.05;;
23496;SDS011;11925;48.122;11.560;2024-02-16T10:24:02;8.18;;;2.13;;
23496;SDS011;11925;48.122;11.560;2024-02-16T10:26:32;4.68;;;1.60;;
23496;SDS011;11925;48.122;11.560;2024-02-16T10:31:33;7.85;;;1.75;;
23496;SDS011;11925;48.122;11.560;2024-02-16T10:34:02;4.13;;;1.92;;
23496;SDS011;11925;48.122;11.560;2024-02-16T10:36:34;5.43;;;1.60;;
23496;SDS011;11925;48.122;11.560;2024-02-16T10:39:04;4.93;;;1.88;;
23496;SDS011;11925;48.122;11.560;2024-02-16T10:44:03;3.78;;;1.42;;
23496;SDS011;11925;48.122;11.560;2024-02-16T10:46:34;5.47;;;1.52;;
23496;SDS011;11925;48.122;11.560;2024-02-16T10:49:04;5.15;;;1.58;;
23496;SDS011;11925;48.122;11.560;2024-02-16T10:51:35;6.43;;;1.60;;
23496;SDS011;11925;48.122;11.560;2024-02-16T10:54:05;3.03;;;1.08;;
23496;SDS011;11925;48.122;11.560;2024-02-16T10:56:35;2.20;;;0.93;;
23496;SDS011;11925;48.122;11.560;2024-02-16T10:59:05;2.60;;;1.20;;
23496;SDS011;11925;48.122;11.560;2024-02-16T11:01:38;5.00;;;1.17;;
23496;SDS011;11925;48.122;11.560;2024-02-16T11:04:07;3.40;;;1.00;;
23496;SDS011;11925;48.122;11.560;2024-02-16T11:06:46;2.33;;;0.85;;
23496;SDS011;11925;48.122;11.560;2024-02-16T11:09:28;2.10;;;1.00;;
23496;SDS011;11925;48.122;11.560;2024-02-16T11:11:58;2.10;;;1.00;;
23496;SDS011;11925;48.122;11.560;2024-02-16T11:14:34;3.45;;;0.90;;
23496;SDS011;11925;48.122;11.560;2024-02-16T11:17:08;4.00;;;1.02;;
23496;SDS011;11925;48.122;11.560;2024-02-16T11:19:37;1.50;;;0.90;;
23496;SDS011;11925;48.122;11.560;2024-02-16T11:22:08;3.53;;;1.08;;
23496;SDS011;11925;48.122;11.560;2024-02-16T11:24:42;2.15;;;1.20;;
23496;SDS011;11925;48.122;11.560;2024-02-16T11:27:11;2.03;;;1.00;;
23496;SDS011;11925;48.122;11.560;2024-02-16T11:29:42;3.35;;;1.50;;
23496;SDS011;11925;48.122;11.560;2024-02-16T11:32:12;2.70;;;1.50;;
23496;SDS011;11925;48.122;11.560;2024-02-16T11:34:41;5.82;;;1.42;;
23496;SDS011;11925;48.122;11.560;2024-02-16T11:37:10;1.80;;;0.90;;
23496;SDS011;11925;48.122;11.560;2024-02-16T11:39:41;2.42;;;1.30;;
23496;SDS011;11925;48.122;11.560;2024-02-16T11:42:12;3.22;;;1.42;;
23496;SDS011;11925;48.122;11.560;2024-02-16T11:44:50;4.18;;;1.27;;
23496;SDS011;11925;48.122;11.560;2024-02-16T11:47:21;3.25;;;0.80;;
23496;SDS011;11925;48.122;11.560;2024-02-16T11:50:04;1.40;;;0.90;;
23496;SDS011;11925;48.122;11.560;2024-02-16T11:52:35;2.65;;;0.90;;
23496;SDS011;11925;48.122;11.560;2024-02-16T11:55:04;3.08;;;1.10;;
23496;SDS011;11925;48.122;11.560;2024-02-16T12:00:04;2.25;;;1.05;;
23496;SDS011;11925;48.122;11.560;2024-02-16T12:02:37;2.33;;;1.08;;
23496;SDS011;11925;48.122;11.560;2024-02-16T12:05:06;4.13;;;1.13;;
23496;SDS011;11925;48.122;11.560;2024-02-16T12:07:36;2.67;;;1.00;;
23496;SDS011;11925;48.122;11.560;2024-02-16T12:10:07;3.05;;;1.10;;
23496;SDS011;11925;48.122;11.560;2024-02-16T12:12:37;2.72;;;1.00;;
23496;SDS011;11925;48.122;11.560;2024-02-16T12:15:06;2.70;;;1.30;;
23496;SDS011;11925;48.122;11.560;2024-02-16T12:17:36;3.58;;;0.90;;
23496;SDS011;11925;48.122;11.560;2024-02-16T12:20:10;4.38;;;1.23;;
23496;SDS011;11925;48.122;11.560;2024-02-16T12:22:40;2.40;;;1.20;;
23496;SDS011;11925;48.122;11.560;2024-02-16T12:25:09;4.22;;;1.13;;
23496;SDS011;11925;48.122;11.560;2024-02-16T12:27:38;2.95;;;0.85;;
23496;SDS011;11925;48.122;11.560;2024-02-16T12:30:08;2.38;;;1.17;;
23496;SDS011;11925;48.122;11.560;2024-02-16T12:32:39;2.15;;;0.80;;
23496;SDS011;11925;48.122;11.560;2024-02-16T12:35:08;2.55;;;1.30;;
23496;SDS011;11925;48.122;11.560;2024-02-16T12:37:37;3.20;;;1.10;;
23496;SDS011;11925;48.122;11.560;2024-02-16T12:40:06;4.07;;;1.27;;
23496;SDS011;11925;48.122;11.560;2024-02-16T12:42:35;4.07;;;1.00;;
23496;SDS011;11925;48.122;11.560;2024-02-16T12:45:05;3.40;;;1.20;;
23496;SDS011;11925;48.122;11.560;2024-02-16T12:47:33;3.95;;;1.10;;
23496;SDS011;11925;48.122;11.560;2024-02-16T12:50:05;2.17;;;0.98;;
23496;SDS011;11925;48.122;11.560;2024-02-16T12:52:34;4.87;;;0.90;;
23496;SDS011;11925;48.122;11.560;2024-02-16T12:55:16;1.83;;;0.90;;
23496;SDS011;11925;48.122;11.560;2024-02-16T12:57:45;3.50;;;1.00;;
23496;SDS011;11925;48.122;11.560;2024-02-16T13:00:14;4.43;;;1.30;;
23496;SDS011;11925;48.122;11.560;2024-02-16T13:02:43;3.38;;;1.33;;
23496;SDS011;11925;48.122;11.560;2024-02-16T13:05:13;1.92;;;0.90;;
23496;SDS011;11925;48.122;11.560;2024-02-16T13:07:42;4.15;;;1.23;;
23496;SDS011;11925;48.122;11.560;2024-02-16T13:10:11;3.15;;;1.15;;
23496;SDS011;11925;48.122;11.560;2024-02-16T13:12:39;2.30;;;1.15;;
23496;SDS011;11925;48.122;11.560;2024-02-16T13:15:10;1.95;;;0.95;;
23496;SDS011;11925;48.122;11.560;2024-02-16T13:17:53;2.50;;;0.90;;
23496;SDS011;11925;48.122;11.560;2024-02-16T13:20:24;2.30;;;1.25;;
23496;SDS011;11925;48.122;11.560;2024-02-16T13:22:53;2.88;;;0.90;;
23496;SDS011;11925;48.122;11.560;2024-02-16T13:25:21;1.85;;;1.13;;
23496;SDS011;11925;48.122;11.560;2024-02-16T13:27:50;2.65;;;1.00;;
23496;SDS011;11925;48.122;11.560;2024-02-16T13:30:19;3.08;;;1.02;;
23496;SDS011;11925;48.122;11.560;2024-02-16T13:32:48;2.85;;;1.30;;
23496;SDS011;11925;48.122;11.560;2024-02-16T13:35:16;2.95;;;1.27;;
23496;SDS011;11925;48.122;11.560;2024-02-16T13:37:48;3.78;;;1.10;;
23496;SDS011;11925;48.122;11.560;2024-02-16T13:40:17;3.58;;;1.05;;
23496;SDS011;11925;48.122;11.560;2024-02-16T13:42:46;4.82;;;1.33;;
23496;SDS011;11925;48.122;11.560;2024-02-16T13:45:15;3.03;;;1.00;;
23496;SDS011;11925;48.122;11.560;2024-02-16T13:47:44;4.05;;;1.05;;
23496;SDS011;11925;48.122;11.560;2024-02-16T13:50:13;2.28;;;1.02;;
23496;SDS011;11925;48.122;11.560;2024-02-16T13:52:42;3.28;;;1.20;;
23496;SDS011;11925;48.122;11.560;2024-02-16T13:55:12;3.78;;;1.23;;
23496;SDS011;11925;48.122;11.560;2024-02-16T13:57:41;4.47;;;1.27;;
23496;SDS011;11925;48.122;11.560;2024-02-16T14:00:10;2.03;;;1.13;;
23496;SDS011;11925;48.122;11.560;2024-02-16T14:02:42;3.40;;;1.10;;
23496;SDS011;11925;48.122;11.560;2024-02-16T14:05:11;3.63;;;1.48;;
23496;SDS011;11925;48.122;11.560;2024-02-16T14:07:40;3.65;;;1.33;;
23496;SDS011;11925;48.122;11.560;2024-02-16T14:10:24;2.38;;;1.10;;
23496;SDS011;11925;48.122;11.560;2024-02-16T14:12:53;4.43;;;1.02;;
23496;SDS011;11925;48.122;11.560;2024-02-16T14:15:22;3.40;;;1.10;;
23496;SDS011;11925;48.122;11.560;2024-02-16T14:17:53;3.67;;;1.15;;
23496;SDS011;11925;48.122;11.560;2024-02-16T14:20:22;2.88;;;1.10;;
23496;SDS011;11925;48.122;11.560;2024-02-16T14:22:51;4.85;;;1.23;;
23496;SDS011;11925;48.122;11.560;2024-02-16T14:25:19;2.85;;;1.20;;
23496;SDS011;11925;48.122;11.560;2024-02-16T14:27:49;5.13;;;1.20;;
23496;SDS011;11925;48.122;11.560;2024-02-16T14:30:18;3.22;;;1.10;;
23496;SDS011;11925;48.122;11.560;2024-02-16T14:32:47;4.20;;;1.30;;
23496;SDS011;11925;48.122;11.560;2024-02-16T14:35:19;3.35;;;1.25;;
23496;SDS011;11925;48.122;11.560;2024-02-16T14:37:49;4.50;;;1.88;;
23496;SDS011;11925;48.122;11.560;2024-02-16T14:40:18;6.97;;;1.30;;
23496;SDS011;11925;48.122;11.560;2024-02-16T14:42:46;5.22;;;1.35;;
23496;SDS011;11925;48.122;11.560;2024-02-16T14:45:17;3.83;;;1.83;;
23496;SDS011;11925;48.122;11.560;2024-02-16T14:47:47;2.47;;;1.00;;
23496;SDS011;11925;48.122;11.560;2024-02-16T14:50:17;2.72;;;1.50;;
23496;SDS011;11925;48.122;11.560;2024-02-16T14:52:45;3.17;;;1.30;;
23496;SDS011;11925;48.122;11.560;2024-02-16T14:55:14;4.97;;;1.40;;
23496;SDS011;11925;48.122;11.560;2024-02-16T14:57:43;3.00;;;1.45;;